sensor_id;sensor_type;location;lat;lon;timestamp;P1;durP1;ratioP1;P2;durP2;ratioP2
5465;SDS011;2755;50.728;7.108;2023-03-01T00:01:21;12.82;;;8.40;;
5465;SDS011;2755;50.728;7.108;2023-03-01T00:03:50;12.88;;;8.60;;
5465;SDS011;2755;50.728;7.108;2023-03-01T00:06:16;10.63;;;7.85;;
5465;SDS011;2755;50.728;7.108;2023-03-01T00:08:42;13.55;;;8.77;;
5465;SDS011;2755;50.728;7.108;2023-03-01T00:13:38;14.43;;;9.00;;
5465;SDS011;2755;50.728;7.108;2023-03-01T00:16:08;12.17;;;8.13;;
5465;SDS011;2755;50.728;7.108;2023-03-01T00:18:35;14.52;;;8.82;;
5465;SDS011;2755;50.728;7.108;2023-03-01T00:21:01;17.70;;;9.40;;
5465;SDS011;2755;50.728;7.108;2023-03-01T00:23:27;11.97;;;7.40;;
5465;SDS011;2755;50.728;7.108;2023-03-01T00:25:53;12.03;;;9.60;;
5465;SDS011;2755;50.728;7.108;2023-03-01T00:28:19;13.15;;;8.98;;
5465;SDS011;2755;50.728;7.108;2023-03-01T00:30:46;17.48;;;10.70;;
5465;SDS011;2755;50.728;7.108;2023-03-01T00:33:11;15.25;;;9.35;;
5465;SDS011;2755;50.728;7.108;2023-03-01T00:35:37;19.23;;;9.33;;
5465;SDS011;2755;50.728;7.108;2023-03-01T00:38:04;18.58;;;10.50;;
5465;SDS011;2755;50.728;7.108;2023-03-01T00:40:31;17.37;;;10.03;;
5465;SDS011;2755;50.728;7.108;2023-03-01T00:42:58;14.10;;;8.60;;
5465;SDS011;2755;50.728;7.108;2023-03-01T00:45:24;12.98;;;8.73;;
5465;SDS011;2755;50.728;7.108;2023-03-01T00:47:51;13.95;;;8.25;;
5465;SDS011;2755;50.728;7.108;2023-03-01T00:50:16;12.70;;;7.90;;
5465;SDS011;2755;50.728;7.108;2023-03-01T00:52:43;15.52;;;8.70;;
5465;SDS011;2755;50.728;7.108;2023-03-01T00:55:09;15.63;;;9.15;;
5465;SDS011;2755;50.728;7.108;2023-03-01T00:57:36;9.38;;;7.05;;
5465;SDS011;2755;50.728;7.108;2023-03-01T01:00:03;17.52;;;9.50;;
5465;SDS011;2755;50.728;7.108;2023-03-01T01:02:29;13.07;;;8.65;;
5465;SDS011;2755;50.728;7.108;2023-03-01T01:04:57;12.00;;;9.20;;
5465;SDS011;2755;50.728;7.108;2023-03-01T01:07:23;16.13;;;9.33;;
5465;SDS011;2755;50.728;7.108;2023-03-01T01:09:49;13.70;;;8.57;;
5465;SDS011;2755;50.728;7.108;2023-03-01T01:12:15;15.33;;;9.00;;
5465;SDS011;2755;50.728;7.108;2023-03-01T01:14:41;12.77;;;8.57;;
5465;SDS011;2755;50.728;7.108;2023-03-01T01:17:07;12.37;;;8.73;;
5465;SDS011;2755;50.728;7.108;2023-03-01T01:19:33;11.80;;;8.67;;
5465;SDS011;2755;50.728;7.108;2023-03-01T01:21:59;23.70;;;9.77;;
5465;SDS011;2755;50.728;7.108;2023-03-01T01:24:25;15.63;;;9.60;;
5465;SDS011;2755;50.728;7.108;2023-03-01T01:26:51;13.60;;;8.50;;
5465;SDS011;2755;50.728;7.108;2023-03-01T01:29:17;15.30;;;9.97;;
5465;SDS011;2755;50.728;7.108;2023-03-01T01:31:43;17.20;;;10.20;;
5465;SDS011;2755;50.728;7.108;2023-03-01T01:34:12;15.20;;;10.03;;
5465;SDS011;2755;50.728;7.108;2023-03-01T01:36:39;12.93;;;9.40;;
5465;SDS011;2755;50.728;7.108;2023-03-01T01:39:05;15.30;;;9.30;;
5465;SDS011;2755;50.728;7.108;2023-03-01T01:41:32;17.55;;;8.98;;
5465;SDS011;2755;50.728;7.108;2023-03-01T01:44:17;14.00;;;9.23;;
5465;SDS011;2755;50.728;7.108;2023-03-01T01:47:04;13.57;;;9.40;;
5465;SDS011;2755;50.728;7.108;2023-03-01T01:49:38;15.65;;;9.57;;
5465;SDS011;2755;50.728;7.108;2023-03-01T01:57:13;18.42;;;9.68;;
5465;SDS011;2755;50.728;7.108;2023-03-01T01:59:43;12.15;;;8.50;;
5465;SDS011;2755;50.728;7.108;2023-03-01T02:02:14;17.13;;;8.90;;
5465;SDS011;2755;50.728;7.108;2023-03-01T02:04:40;12.50;;;8.00;;
5465;SDS011;2755;50.728;7.108;2023-03-01T02:07:08;13.10;;;9.50;;
5465;SDS011;2755;50.728;7.108;2023-03-01T02:09:41;14.35;;;8.77;;
5465;SDS011;2755;50.728;7.108;2023-03-01T02:12:10;15.88;;;9.38;;
5465;SDS011;2755;50.728;7.108;2023-03-01T02:14:36;16.13;;;8.50;;
5465;SDS011;2755;50.728;7.108;2023-03-01T02:17:02;14.37;;;9.23;;
5465;SDS011;2755;50.728;7.108;2023-03-01T02:19:35;14.70;;;9.67;;
5465;SDS011;2755;50.728;7.108;2023-03-01T02:22:20;14.07;;;8.30;;
5465;SDS011;2755;50.728;7.108;2023-03-01T02:27:19;11.63;;;8.83;;
5465;SDS011;2755;50.728;7.108;2023-03-01T02:29:49;13.43;;;8.80;;
5465;SDS011;2755;50.728;7.108;2023-03-01T02:32:15;15.23;;;9.95;;
5465;SDS011;2755;50.728;7.108;2023-03-01T02:34:49;16.33;;;9.82;;
5465;SDS011;2755;50.728;7.108;2023-03-01T02:37:15;12.43;;;8.30;;
5465;SDS011;2755;50.728;7.108;2023-03-01T02:39:49;21.23;;;9.55;;
5465;SDS011;2755;50.728;7.108;2023-03-01T02:42:22;13.98;;;9.20;;
5465;SDS011;2755;50.728;7.108;2023-03-01T02:44:51;17.33;;;8.57;;
5465;SDS011;2755;50.728;7.108;2023-03-01T02:47:18;15.48;;;9.73;;
5465;SDS011;2755;50.728;7.108;2023-03-01T02:49:44;15.30;;;9.40;;
5465;SDS011;2755;50.728;7.108;2023-03-01T02:55:08;15.57;;;9.25;;
5465;SDS011;2755;50.728;7.108;2023-03-01T02:57:38;13.77;;;8.93;;
5465;SDS011;2755;50.728;7.108;2023-03-01T03:00:09;14.30;;;8.35;;
5465;SDS011;2755;50.728;7.108;2023-03-01T03:02:44;13.65;;;8.68;;
5465;SDS011;2755;50.728;7.108;2023-03-01T03:05:14;13.75;;;8.32;;
5465;SDS011;2755;50.728;7.108;2023-03-01T03:07:43;14.38;;;9.45;;
5465;SDS011;2755;50.728;7.108;2023-03-01T03:10:14;15.32;;;8.60;;
5465;SDS011;2755;50.728;7.108;2023-03-01T03:12:48;13.20;;;9.05;;
5465;SDS011;2755;50.728;7.108;2023-03-01T03:15:15;13.25;;;8.90;;
5465;SDS011;2755;50.728;7.108;2023-03-01T03:17:42;16.42;;;9.30;;
5465;SDS011;2755;50.728;7.108;2023-03-01T03:20:09;14.07;;;9.40;;
5465;SDS011;2755;50.728;7.108;2023-03-01T03:22:39;15.00;;;8.90;;
5465;SDS011;2755;50.728;7.108;2023-03-01T03:25:05;15.10;;;9.20;;
5465;SDS011;2755;50.728;7.108;2023-03-01T03:27:35;17.95;;;9.55;;
5465;SDS011;2755;50.728;7.108;2023-03-01T03:30:02;11.05;;;8.18;;
5465;SDS011;2755;50.728;7.108;2023-03-01T03:32:33;17.63;;;8.75;;
5465;SDS011;2755;50.728;7.108;2023-03-01T03:35:00;15.00;;;9.48;;
5465;SDS011;2755;50.728;7.108;2023-03-01T03:37:26;15.93;;;9.30;;
5465;SDS011;2755;50.728;7.108;2023-03-01T03:40:11;12.98;;;8.57;;
5465;SDS011;2755;50.728;7.108;2023-03-01T03:42:40;14.80;;;8.68;;
5465;SDS011;2755;50.728;7.108;2023-03-01T03:45:06;15.98;;;9.50;;
5465;SDS011;2755;50.728;7.108;2023-03-01T03:47:32;22.13;;;10.10;;
5465;SDS011;2755;50.728;7.108;2023-03-01T03:49:58;17.50;;;10.07;;
5465;SDS011;2755;50.728;7.108;2023-03-01T03:52:24;16.27;;;9.63;;
5465;SDS011;2755;50.728;7.108;2023-03-01T03:54:50;24.23;;;10.33;;
5465;SDS011;2755;50.728;7.108;2023-03-01T03:57:16;18.30;;;9.77;;
5465;SDS011;2755;50.728;7.108;2023-03-01T03:59:42;18.43;;;10.57;;
5465;SDS011;2755;50.728;7.108;2023-03-01T04:02:08;16.13;;;10.30;;
5465;SDS011;2755;50.728;7.108;2023-03-01T04:04:34;15.70;;;10.63;;
5465;SDS011;2755;50.728;7.108;2023-03-01T04:07:00;13.35;;;9.65;;
5465;SDS011;2755;50.728;7.108;2023-03-01T04:09:26;15.93;;;9.50;;
5465;SDS011;2755;50.728;7.108;2023-03-01T04:11:52;13.73;;;8.93;;
5465;SDS011;2755;50.728;7.108;2023-03-01T04:14:18;13.63;;;8.87;;
5465;SDS011;2755;50.728;7.108;2023-03-01T04:16:43;15.37;;;9.93;;
5465;SDS011;2755;50.728;7.108;2023-03-01T04:19:09;15.93;;;9.40;;
5465;SDS011;2755;50.728;7.108;2023-03-01T04:21:35;11.93;;;9.27;;
5465;SDS011;2755;50.728;7.108;2023-03-01T04:24:01;17.00;;;10.10;;
5465;SDS011;2755;50.728;7.108;2023-03-01T04:26:28;12.75;;;8.55;;
5465;SDS011;2755;50.728;7.108;2023-03-01T04:28:54;12.20;;;9.00;;
5465;SDS011;2755;50.728;7.108;2023-03-01T04:31:20;17.60;;;10.83;;
5465;SDS011;2755;50.728;7.108;2023-03-01T04:33:47;15.17;;;9.10;;
5465;SDS011;2755;50.728;7.108;2023-03-01T04:36:17;14.50;;;9.98;;
5465;SDS011;2755;50.728;7.108;2023-03-01T04:38:44;18.17;;;9.55;;
5465;SDS011;2755;50.728;7.108;2023-03-01T04:41:12;14.15;;;10.00;;
5465;SDS011;2755;50.728;7.108;2023-03-01T04:43:39;16.70;;;9.77;;
5465;SDS011;2755;50.728;7.108;2023-03-01T04:46:06;18.38;;;9.98;;
5465;SDS011;2755;50.728;7.108;2023-03-01T04:48:34;16.95;;;10.73;;
5465;SDS011;2755;50.728;7.108;2023-03-01T04:51:01;15.32;;;10.20;;
5465;SDS011;2755;50.728;7.108;2023-03-01T04:53:27;15.18;;;9.95;;
5465;SDS011;2755;50.728;7.108;2023-03-01T04:55:54;19.42;;;10.25;;
5465;SDS011;2755;50.728;7.108;2023-03-01T04:58:24;15.88;;;10.38;;
5465;SDS011;2755;50.728;7.108;2023-03-01T05:00:51;16.13;;;9.75;;
5465;SDS011;2755;50.728;7.108;2023-03-01T05:03:17;16.48;;;11.55;;
5465;SDS011;2755;50.728;7.108;2023-03-01T05:05:43;16.80;;;9.32;;
5465;SDS011;2755;50.728;7.108;2023-03-01T05:08:09;12.70;;;9.50;;
5465;SDS011;2755;50.728;7.108;2023-03-01T05:10:42;13.75;;;9.43;;
5465;SDS011;2755;50.728;7.108;2023-03-01T05:13:13;14.95;;;9.43;;
5465;SDS011;2755;50.728;7.108;2023-03-01T05:15:45;14.63;;;8.77;;
5465;SDS011;2755;50.728;7.108;2023-03-01T05:18:11;15.85;;;10.60;;
5465;SDS011;2755;50.728;7.108;2023-03-01T05:20:37;18.83;;;11.10;;
5465;SDS011;2755;50.728;7.108;2023-03-01T05:23:03;16.17;;;9.55;;
5465;SDS011;2755;50.728;7.108;2023-03-01T05:25:30;16.33;;;10.40;;
5465;SDS011;2755;50.728;7.108;2023-03-01T05:27:58;18.00;;;9.75;;
5465;SDS011;2755;50.728;7.108;2023-03-01T05:30:29;15.60;;;10.40;;
5465;SDS011;2755;50.728;7.108;2023-03-01T05:32:56;16.88;;;9.70;;
5465;SDS011;2755;50.728;7.108;2023-03-01T05:35:22;15.10;;;10.40;;
5465;SDS011;2755;50.728;7.108;2023-03-01T05:37:48;18.77;;;10.90;;
5465;SDS011;2755;50.728;7.108;2023-03-01T05:40:15;15.43;;;9.55;;
5465;SDS011;2755;50.728;7.108;2023-03-01T05:42:49;19.20;;;10.55;;
5465;SDS011;2755;50.728;7.108;2023-03-01T05:45:18;19.40;;;10.20;;
5465;SDS011;2755;50.728;7.108;2023-03-01T05:47:45;16.50;;;10.32;;
5465;SDS011;2755;50.728;7.108;2023-03-01T05:50:13;17.60;;;10.90;;
5465;SDS011;2755;50.728;7.108;2023-03-01T05:52:44;16.48;;;10.30;;
5465;SDS011;2755;50.728;7.108;2023-03-01T05:55:17;23.92;;;12.18;;
5465;SDS011;2755;50.728;7.108;2023-03-01T05:57:45;20.25;;;12.07;;
5465;SDS011;2755;50.728;7.108;2023-03-01T06:00:11;17.60;;;10.05;;
5465;SDS011;2755;50.728;7.108;2023-03-01T06:02:38;19.13;;;11.27;;
5465;SDS011;2755;50.728;7.108;2023-03-01T06:05:05;16.42;;;9.90;;
5465;SDS011;2755;50.728;7.108;2023-03-01T06:07:32;16.38;;;10.48;;
5465;SDS011;2755;50.728;7.108;2023-03-01T06:09:58;18.00;;;10.98;;
5465;SDS011;2755;50.728;7.108;2023-03-01T06:12:24;19.40;;;11.07;;
5465;SDS011;2755;50.728;7.108;2023-03-01T06:14:50;17.83;;;11.37;;
5465;SDS011;2755;50.728;7.108;2023-03-01T06:17:16;15.87;;;10.13;;
5465;SDS011;2755;50.728;7.108;2023-03-01T06:19:42;17.90;;;11.00;;
5465;SDS011;2755;50.728;7.108;2023-03-01T06:22:08;15.20;;;10.67;;
5465;SDS011;2755;50.728;7.108;2023-03-01T06:24:33;13.90;;;9.60;;
5465;SDS011;2755;50.728;7.108;2023-03-01T06:27:01;15.43;;;9.85;;
5465;SDS011;2755;50.728;7.108;2023-03-01T06:29:27;21.00;;;10.30;;
5465;SDS011;2755;50.728;7.108;2023-03-01T06:31:53;23.20;;;11.87;;
5465;SDS011;2755;50.728;7.108;2023-03-01T06:34:19;19.42;;;11.02;;
5465;SDS011;2755;50.728;7.108;2023-03-01T06:36:46;18.98;;;11.10;;
5465;SDS011;2755;50.728;7.108;2023-03-01T06:39:12;19.10;;;11.17;;
5465;SDS011;2755;50.728;7.108;2023-03-01T06:41:38;15.40;;;10.93;;
5465;SDS011;2755;50.728;7.108;2023-03-01T06:44:04;17.17;;;10.40;;
5465;SDS011;2755;50.728;7.108;2023-03-01T06:46:30;21.90;;;11.05;;
5465;SDS011;2755;50.728;7.108;2023-03-01T06:48:56;17.80;;;10.73;;
5465;SDS011;2755;50.728;7.108;2023-03-01T06:51:21;16.60;;;10.20;;
5465;SDS011;2755;50.728;7.108;2023-03-01T06:53:47;18.35;;;11.30;;
5465;SDS011;2755;50.728;7.108;2023-03-01T06:56:13;18.23;;;11.65;;
5465;SDS011;2755;50.728;7.108;2023-03-01T06:58:39;20.43;;;11.27;;
5465;SDS011;2755;50.728;7.108;2023-03-01T07:01:08;19.33;;;11.48;;
5465;SDS011;2755;50.728;7.108;2023-03-01T07:03:34;21.05;;;10.90;;
5465;SDS011;2755;50.728;7.108;2023-03-01T07:06:00;19.05;;;12.10;;
5465;SDS011;2755;50.728;7.108;2023-03-01T07:08:26;19.63;;;10.50;;
5465;SDS011;2755;50.728;7.108;2023-03-01T07:10:56;25.27;;;12.70;;
5465;SDS011;2755;50.728;7.108;2023-03-01T07:13:22;21.63;;;12.48;;
5465;SDS011;2755;50.728;7.108;2023-03-01T07:15:48;23.73;;;14.00;;
5465;SDS011;2755;50.728;7.108;2023-03-01T07:18:14;22.13;;;12.07;;
5465;SDS011;2755;50.728;7.108;2023-03-01T07:20:40;22.85;;;11.38;;
5465;SDS011;2755;50.728;7.108;2023-03-01T07:23:06;19.27;;;12.60;;
5465;SDS011;2755;50.728;7.108;2023-03-01T07:25:32;21.17;;;12.27;;
5465;SDS011;2755;50.728;7.108;2023-03-01T07:27:58;16.02;;;10.52;;
5465;SDS011;2755;50.728;7.108;2023-03-01T07:30:24;19.40;;;12.05;;
5465;SDS011;2755;50.728;7.108;2023-03-01T07:32:52;19.67;;;11.15;;
5465;SDS011;2755;50.728;7.108;2023-03-01T07:35:18;19.50;;;13.20;;
5465;SDS011;2755;50.728;7.108;2023-03-01T07:37:44;18.67;;;9.50;;
5465;SDS011;2755;50.728;7.108;2023-03-01T07:40:10;15.13;;;10.20;;
5465;SDS011;2755;50.728;7.108;2023-03-01T07:42:36;14.20;;;9.45;;
5465;SDS011;2755;50.728;7.108;2023-03-01T07:45:02;13.77;;;8.43;;
5465;SDS011;2755;50.728;7.108;2023-03-01T07:47:30;11.38;;;8.15;;
5465;SDS011;2755;50.728;7.108;2023-03-01T07:49:56;13.45;;;9.23;;
5465;SDS011;2755;50.728;7.108;2023-03-01T07:52:21;19.23;;;9.53;;
5465;SDS011;2755;50.728;7.108;2023-03-01T07:54:47;16.17;;;9.87;;
5465;SDS011;2755;50.728;7.108;2023-03-01T07:57:13;18.33;;;10.73;;
5465;SDS011;2755;50.728;7.108;2023-03-01T07:59:40;17.43;;;10.23;;
5465;SDS011;2755;50.728;7.108;2023-03-01T08:02:06;14.37;;;9.47;;
5465;SDS011;2755;50.728;7.108;2023-03-01T08:04:32;15.80;;;10.20;;
5465;SDS011;2755;50.728;7.108;2023-03-01T08:06:58;17.43;;;10.67;;
5465;SDS011;2755;50.728;7.108;2023-03-01T08:09:24;15.33;;;9.90;;
5465;SDS011;2755;50.728;7.108;2023-03-01T08:11:50;14.27;;;9.60;;
5465;SDS011;2755;50.728;7.108;2023-03-01T08:14:16;13.80;;;8.83;;
5465;SDS011;2755;50.728;7.108;2023-03-01T08:16:42;15.90;;;10.33;;
5465;SDS011;2755;50.728;7.108;2023-03-01T08:19:09;14.93;;;8.93;;
5465;SDS011;2755;50.728;7.108;2023-03-01T08:21:36;25.97;;;10.23;;
5465;SDS011;2755;50.728;7.108;2023-03-01T08:24:03;18.67;;;10.10;;
5465;SDS011;2755;50.728;7.108;2023-03-01T08:26:31;18.77;;;9.10;;
5465;SDS011;2755;50.728;7.108;2023-03-01T08:28:57;16.83;;;9.97;;
5465;SDS011;2755;50.728;7.108;2023-03-01T08:31:24;13.83;;;9.00;;
5465;SDS011;2755;50.728;7.108;2023-03-01T08:33:56;15.90;;;10.13;;
5465;SDS011;2755;50.728;7.108;2023-03-01T08:36:24;17.77;;;10.40;;
5465;SDS011;2755;50.728;7.108;2023-03-01T08:38:50;15.87;;;9.90;;
5465;SDS011;2755;50.728;7.108;2023-03-01T08:41:16;16.90;;;10.60;;
5465;SDS011;2755;50.728;7.108;2023-03-01T08:43:43;16.97;;;11.03;;
5465;SDS011;2755;50.728;7.108;2023-03-01T08:46:09;19.67;;;11.13;;
5465;SDS011;2755;50.728;7.108;2023-03-01T08:48:35;16.20;;;10.80;;
5465;SDS011;2755;50.728;7.108;2023-03-01T08:51:14;15.67;;;10.83;;
5465;SDS011;2755;50.728;7.108;2023-03-01T08:53:41;25.07;;;10.63;;
5465;SDS011;2755;50.728;7.108;2023-03-01T08:56:07;18.73;;;10.60;;
5465;SDS011;2755;50.728;7.108;2023-03-01T08:58:33;16.50;;;9.57;;
5465;SDS011;2755;50.728;7.108;2023-03-01T09:01:00;21.50;;;10.53;;
5465;SDS011;2755;50.728;7.108;2023-03-01T09:03:25;16.20;;;10.80;;
5465;SDS011;2755;50.728;7.108;2023-03-01T09:05:52;14.87;;;10.13;;
5465;SDS011;2755;50.728;7.108;2023-03-01T09:08:18;20.63;;;11.40;;
5465;SDS011;2755;50.728;7.108;2023-03-01T09:10:45;15.10;;;10.37;;
5465;SDS011;2755;50.728;7.108;2023-03-01T09:13:11;15.37;;;9.80;;
5465;SDS011;2755;50.728;7.108;2023-03-01T09:15:37;16.03;;;9.20;;
5465;SDS011;2755;50.728;7.108;2023-03-01T09:18:03;22.77;;;10.63;;
5465;SDS011;2755;50.728;7.108;2023-03-01T09:20:30;22.80;;;10.47;;
5465;SDS011;2755;50.728;7.108;2023-03-01T09:22:56;16.37;;;10.13;;
5465;SDS011;2755;50.728;7.108;2023-03-01T09:25:22;15.90;;;9.83;;
5465;SDS011;2755;50.728;7.108;2023-03-01T09:27:50;17.63;;;10.07;;
5465;SDS011;2755;50.728;7.108;2023-03-01T09:30:16;15.47;;;9.40;;
5465;SDS011;2755;50.728;7.108;2023-03-01T09:32:42;18.13;;;10.00;;
5465;SDS011;2755;50.728;7.108;2023-03-01T09:35:10;14.90;;;9.50;;
5465;SDS011;2755;50.728;7.108;2023-03-01T09:37:36;18.37;;;8.37;;
5465;SDS011;2755;50.728;7.108;2023-03-01T09:40:03;15.93;;;9.90;;
5465;SDS011;2755;50.728;7.108;2023-03-01T09:42:32;16.30;;;10.03;;
5465;SDS011;2755;50.728;7.108;2023-03-01T09:45:06;13.70;;;8.87;;
5465;SDS011;2755;50.728;7.108;2023-03-01T09:47:40;16.67;;;10.67;;
5465;SDS011;2755;50.728;7.108;2023-03-01T09:50:17;15.50;;;9.37;;
5465;SDS011;2755;50.728;7.108;2023-03-01T09:52:58;17.73;;;8.77;;
5465;SDS011;2755;50.728;7.108;2023-03-01T09:55:29;14.87;;;9.37;;
5465;SDS011;2755;50.728;7.108;2023-03-01T09:58:20;12.67;;;8.67;;
5465;SDS011;2755;50.728;7.108;2023-03-01T10:04:20;14.30;;;9.30;;
5465;SDS011;2755;50.728;7.108;2023-03-01T10:07:30;12.97;;;8.43;;
5465;SDS011;2755;50.728;7.108;2023-03-01T10:10:06;21.70;;;8.77;;
5465;SDS011;2755;50.728;7.108;2023-03-01T10:12:34;13.70;;;8.10;;
5465;SDS011;2755;50.728;7.108;2023-03-01T10:17:36;12.87;;;8.93;;
5465;SDS011;2755;50.728;7.108;2023-03-01T10:22:52;12.67;;;7.00;;
5465;SDS011;2755;50.728;7.108;2023-03-01T10:28:10;12.93;;;8.87;;
5465;SDS011;2755;50.728;7.108;2023-03-01T10:30:56;19.20;;;8.70;;
5465;SDS011;2755;50.728;7.108;2023-03-01T10:33:25;13.57;;;8.80;;
5465;SDS011;2755;50.728;7.108;2023-03-01T10:35:54;14.50;;;9.00;;
5465;SDS011;2755;50.728;7.108;2023-03-01T10:38:20;19.93;;;9.17;;
5465;SDS011;2755;50.728;7.108;2023-03-01T10:40:50;12.97;;;9.47;;
5465;SDS011;2755;50.728;7.108;2023-03-01T10:43:47;14.43;;;9.23;;
5465;SDS011;2755;50.728;7.108;2023-03-01T10:46:25;15.30;;;8.30;;
5465;SDS011;2755;50.728;7.108;2023-03-01T10:51:50;12.27;;;8.13;;
5465;SDS011;2755;50.728;7.108;2023-03-01T10:54:27;13.80;;;8.60;;
5465;SDS011;2755;50.728;7.108;2023-03-01T10:57:02;14.60;;;8.00;;
5465;SDS011;2755;50.728;7.108;2023-03-01T11:04:33;19.73;;;8.50;;
5465;SDS011;2755;50.728;7.108;2023-03-01T11:06:59;11.90;;;8.70;;
5465;SDS011;2755;50.728;7.108;2023-03-01T11:09:26;12.03;;;8.60;;
5465;SDS011;2755;50.728;7.108;2023-03-01T11:12:02;12.07;;;8.07;;
5465;SDS011;2755;50.728;7.108;2023-03-01T11:14:33;12.20;;;7.40;;
5465;SDS011;2755;50.728;7.108;2023-03-01T11:17:05;13.20;;;8.10;;
5465;SDS011;2755;50.728;7.108;2023-03-01T11:19:40;16.43;;;8.90;;
5465;SDS011;2755;50.728;7.108;2023-03-01T11:22:12;15.07;;;8.63;;
5465;SDS011;2755;50.728;7.108;2023-03-01T11:24:53;11.73;;;7.87;;
5465;SDS011;2755;50.728;7.108;2023-03-01T11:27:23;12.23;;;7.30;;
5465;SDS011;2755;50.728;7.108;2023-03-01T11:30:39;13.40;;;7.63;;
5465;SDS011;2755;50.728;7.108;2023-03-01T11:32:45;13.20;;;7.50;;
5465;SDS011;2755;50.728;7.108;2023-03-01T11:35:21;10.80;;;7.20;;
5465;SDS011;2755;50.728;7.108;2023-03-01T11:40:25;9.30;;;6.63;;
5465;SDS011;2755;50.728;7.108;2023-03-01T11:45:24;14.00;;;6.77;;
5465;SDS011;2755;50.728;7.108;2023-03-01T11:48:13;12.20;;;7.63;;
5465;SDS011;2755;50.728;7.108;2023-03-01T11:50:52;8.93;;;6.67;;
5465;SDS011;2755;50.728;7.108;2023-03-01T11:55:53;11.13;;;6.80;;
5465;SDS011;2755;50.728;7.108;2023-03-01T12:03:47;11.00;;;6.67;;
5465;SDS011;2755;50.728;7.108;2023-03-01T12:20:06;9.67;;;6.07;;
5465;SDS011;2755;50.728;7.108;2023-03-01T12:22:32;11.67;;;6.20;;
5465;SDS011;2755;50.728;7.108;2023-03-01T12:30:57;9.03;;;7.00;;
5465;SDS011;2755;50.728;7.108;2023-03-01T12:36:22;13.17;;;7.50;;
5465;SDS011;2755;50.728;7.108;2023-03-01T12:39:09;12.50;;;7.10;;
5465;SDS011;2755;50.728;7.108;2023-03-01T12:47:02;12.00;;;6.63;;
5465;SDS011;2755;50.728;7.108;2023-03-01T12:49:54;12.63;;;6.27;;
5465;SDS011;2755;50.728;7.108;2023-03-01T12:52:46;9.10;;;5.30;;
5465;SDS011;2755;50.728;7.108;2023-03-01T13:00:35;14.13;;;7.00;;
5465;SDS011;2755;50.728;7.108;2023-03-01T13:03:13;9.80;;;6.47;;
5465;SDS011;2755;50.728;7.108;2023-03-01T13:05:56;14.60;;;6.20;;
5465;SDS011;2755;50.728;7.108;2023-03-01T13:08:30;11.53;;;5.50;;
5465;SDS011;2755;50.728;7.108;2023-03-01T13:11:05;9.43;;;6.10;;
5465;SDS011;2755;50.728;7.108;2023-03-01T13:13:36;10.27;;;5.50;;
5465;SDS011;2755;50.728;7.108;2023-03-01T13:19:14;10.37;;;6.40;;
5465;SDS011;2755;50.728;7.108;2023-03-01T13:21:42;9.37;;;5.40;;
5465;SDS011;2755;50.728;7.108;2023-03-01T13:34:45;11.67;;;6.67;;
5465;SDS011;2755;50.728;7.108;2023-03-01T13:37:18;8.80;;;5.30;;
5465;SDS011;2755;50.728;7.108;2023-03-01T13:39:46;13.50;;;6.17;;
5465;SDS011;2755;50.728;7.108;2023-03-01T13:42:32;11.50;;;6.10;;
5465;SDS011;2755;50.728;7.108;2023-03-01T13:44:57;12.93;;;6.23;;
5465;SDS011;2755;50.728;7.108;2023-03-01T13:47:24;10.30;;;6.50;;
5465;SDS011;2755;50.728;7.108;2023-03-01T13:50:00;9.90;;;6.10;;
5465;SDS011;2755;50.728;7.108;2023-03-01T13:52:38;11.40;;;6.00;;
5465;SDS011;2755;50.728;7.108;2023-03-01T13:57:43;8.90;;;5.33;;
5465;SDS011;2755;50.728;7.108;2023-03-01T14:03:00;12.10;;;5.60;;
5465;SDS011;2755;50.728;7.108;2023-03-01T14:05:35;15.10;;;5.53;;
5465;SDS011;2755;50.728;7.108;2023-03-01T14:08:02;9.20;;;6.00;;
5465;SDS011;2755;50.728;7.108;2023-03-01T14:10:36;10.40;;;6.20;;
5465;SDS011;2755;50.728;7.108;2023-03-01T14:16:06;10.47;;;6.43;;
5465;SDS011;2755;50.728;7.108;2023-03-01T14:19:04;9.73;;;5.33;;
5465;SDS011;2755;50.728;7.108;2023-03-01T14:21:45;7.40;;;6.03;;
5465;SDS011;2755;50.728;7.108;2023-03-01T14:24:18;8.07;;;5.33;;
5465;SDS011;2755;50.728;7.108;2023-03-01T14:26:46;11.87;;;5.63;;
5465;SDS011;2755;50.728;7.108;2023-03-01T14:32:10;9.73;;;5.87;;
5465;SDS011;2755;50.728;7.108;2023-03-01T14:34:52;9.17;;;5.23;;
5465;SDS011;2755;50.728;7.108;2023-03-01T14:37:24;9.27;;;5.57;;
5465;SDS011;2755;50.728;7.108;2023-03-01T14:39:50;9.77;;;5.47;;
5465;SDS011;2755;50.728;7.108;2023-03-01T14:42:17;8.87;;;5.90;;
5465;SDS011;2755;50.728;7.108;2023-03-01T14:44:45;10.17;;;5.40;;
5465;SDS011;2755;50.728;7.108;2023-03-01T14:47:14;6.90;;;4.90;;
5465;SDS011;2755;50.728;7.108;2023-03-01T14:49:44;8.37;;;5.47;;
5465;SDS011;2755;50.728;7.108;2023-03-01T14:52:18;8.47;;;4.93;;
5465;SDS011;2755;50.728;7.108;2023-03-01T14:54:54;6.60;;;4.83;;
5465;SDS011;2755;50.728;7.108;2023-03-01T14:57:24;6.63;;;5.00;;
5465;SDS011;2755;50.728;7.108;2023-03-01T14:59:51;10.47;;;5.90;;
5465;SDS011;2755;50.728;7.108;2023-03-01T15:02:20;9.67;;;5.00;;
5465;SDS011;2755;50.728;7.108;2023-03-01T15:04:48;8.63;;;4.70;;
5465;SDS011;2755;50.728;7.108;2023-03-01T15:07:14;6.10;;;4.30;;
5465;SDS011;2755;50.728;7.108;2023-03-01T15:09:41;12.57;;;5.00;;
5465;SDS011;2755;50.728;7.108;2023-03-01T15:14:51;9.50;;;4.20;;
5465;SDS011;2755;50.728;7.108;2023-03-01T15:17:39;9.23;;;4.00;;
5465;SDS011;2755;50.728;7.108;2023-03-01T15:20:05;8.90;;;3.53;;
5465;SDS011;2755;50.728;7.108;2023-03-01T15:22:40;10.70;;;4.07;;
5465;SDS011;2755;50.728;7.108;2023-03-01T15:25:16;8.93;;;4.17;;
5465;SDS011;2755;50.728;7.108;2023-03-01T15:27:47;6.77;;;3.87;;
5465;SDS011;2755;50.728;7.108;2023-03-01T15:30:17;11.93;;;4.43;;
5465;SDS011;2755;50.728;7.108;2023-03-01T15:32:43;7.60;;;4.20;;
5465;SDS011;2755;50.728;7.108;2023-03-01T15:38:04;6.13;;;4.30;;
5465;SDS011;2755;50.728;7.108;2023-03-01T15:40:30;6.30;;;3.67;;
5465;SDS011;2755;50.728;7.108;2023-03-01T15:43:03;8.67;;;3.77;;
5465;SDS011;2755;50.728;7.108;2023-03-01T15:45:31;10.10;;;3.80;;
5465;SDS011;2755;50.728;7.108;2023-03-01T15:48:00;7.13;;;4.13;;
5465;SDS011;2755;50.728;7.108;2023-03-01T15:50:32;6.53;;;3.80;;
5465;SDS011;2755;50.728;7.108;2023-03-01T15:53:00;8.00;;;4.13;;
5465;SDS011;2755;50.728;7.108;2023-03-01T15:55:30;5.60;;;3.80;;
5465;SDS011;2755;50.728;7.108;2023-03-01T15:57:59;7.00;;;3.80;;
5465;SDS011;2755;50.728;7.108;2023-03-01T16:00:26;5.60;;;3.13;;
5465;SDS011;2755;50.728;7.108;2023-03-01T16:02:52;5.93;;;4.13;;
5465;SDS011;2755;50.728;7.108;2023-03-01T16:05:23;10.53;;;4.60;;
5465;SDS011;2755;50.728;7.108;2023-03-01T16:07:53;4.50;;;3.53;;
5465;SDS011;2755;50.728;7.108;2023-03-01T16:10:19;7.93;;;3.83;;
5465;SDS011;2755;50.728;7.108;2023-03-01T16:12:46;6.37;;;3.77;;
5465;SDS011;2755;50.728;7.108;2023-03-01T16:15:13;6.40;;;3.37;;
5465;SDS011;2755;50.728;7.108;2023-03-01T16:17:54;5.90;;;3.33;;
5465;SDS011;2755;50.728;7.108;2023-03-01T16:20:22;7.23;;;3.70;;
5465;SDS011;2755;50.728;7.108;2023-03-01T16:22:48;8.53;;;5.40;;
5465;SDS011;2755;50.728;7.108;2023-03-01T16:25:15;7.20;;;4.33;;
5465;SDS011;2755;50.728;7.108;2023-03-01T16:27:43;6.73;;;4.73;;
5465;SDS011;2755;50.728;7.108;2023-03-01T16:30:10;12.97;;;5.47;;
5465;SDS011;2755;50.728;7.108;2023-03-01T16:32:40;8.53;;;5.10;;
5465;SDS011;2755;50.728;7.108;2023-03-01T16:35:07;7.43;;;5.37;;
5465;SDS011;2755;50.728;7.108;2023-03-01T16:37:34;7.53;;;4.93;;
5465;SDS011;2755;50.728;7.108;2023-03-01T16:40:00;9.03;;;5.87;;
5465;SDS011;2755;50.728;7.108;2023-03-01T16:42:27;9.53;;;4.80;;
5465;SDS011;2755;50.728;7.108;2023-03-01T16:44:56;8.00;;;5.37;;
5465;SDS011;2755;50.728;7.108;2023-03-01T16:47:22;7.13;;;4.37;;
5465;SDS011;2755;50.728;7.108;2023-03-01T16:49:51;7.80;;;5.37;;
5465;SDS011;2755;50.728;7.108;2023-03-01T16:52:17;7.00;;;4.47;;
5465;SDS011;2755;50.728;7.108;2023-03-01T16:54:43;7.13;;;4.83;;
5465;SDS011;2755;50.728;7.108;2023-03-01T16:57:09;7.40;;;4.70;;
5465;SDS011;2755;50.728;7.108;2023-03-01T16:59:35;9.33;;;5.23;;
5465;SDS011;2755;50.728;7.108;2023-03-01T17:02:02;7.97;;;5.40;;